»·PEaware :: CFOX L52-L88

CFOX :: L52-L88

FLIGHT INFORMATION

Flight Status: Arrived
Operator: Unknown
More flights by this operator :: More flights under this callsign
Pilot: Louis M. (12714)
Aircraft: BEECH AIRCRAFT BONANZA
(BE36)
More flights by this aircraft type
Origin: L52 Oceano Co
United States
Destination: L88 New Cuyama
United States
More flights between these airports :: More routes between these airports
Route: -
File this flight plan on PilotEdge
Remarks:
Altitude:
(Current/Filed)
7,500ft
Speed:
(Current/Filed)
150kts
Departed: 30-Dec-21 09:57 PM
Arrived: 30-Dec-21 10:22 PM
Distance/Time
Traveled:
47nm/0:24
Distance/Time
To Go:
Arrived

Flight Plot

Page will automatically refresh every two minutes.

Flight plan parsing failed; only flown route is shown


Map Options




Map Legend


Flown Route
Filed Route
Departure Airport
Arrival Airport
Navaid (VOR, NDB)
Fix

Horizontal Profiles

Position Reports

Time Latitude Longitude Heading Altitude Ground
Speed
30-Dec-21 21:21 35.102147 -120.622311 16 18ft 0kts
30-Dec-21 21:22 35.102147 -120.622311 16 18ft 0kts
30-Dec-21 21:23 35.102165 -120.622305 15 18ft 0kts
30-Dec-21 21:24 35.102165 -120.622305 15 18ft 0kts
30-Dec-21 21:25 35.102165 -120.622305 15 18ft 0kts
30-Dec-21 21:26 35.102165 -120.622305 15 18ft 0kts
30-Dec-21 21:27 35.102165 -120.622305 15 18ft 0kts
30-Dec-21 21:28 35.102165 -120.622305 15 18ft 0kts
30-Dec-21 21:29 35.102165 -120.622305 15 18ft 0kts
30-Dec-21 21:30 35.102165 -120.622305 15 18ft 0kts
30-Dec-21 21:31 35.102165 -120.622305 15 18ft 0kts
30-Dec-21 21:32 35.102165 -120.622305 15 18ft 0kts
30-Dec-21 21:33 35.102165 -120.622305 15 18ft 0kts
30-Dec-21 21:34 35.102165 -120.622305 15 18ft 0kts
30-Dec-21 21:35 35.102165 -120.622305 15 18ft 0kts
30-Dec-21 21:36 35.102165 -120.622305 15 18ft 0kts
30-Dec-21 21:37 35.102165 -120.622305 15 18ft 0kts
30-Dec-21 21:39 35.102165 -120.622305 15 18ft 0kts
30-Dec-21 21:40 35.102165 -120.622305 15 18ft 0kts
30-Dec-21 21:41 35.102165 -120.622305 15 18ft 0kts
30-Dec-21 21:42 35.102165 -120.622305 15 18ft 0kts
30-Dec-21 21:43 35.102165 -120.622305 15 18ft 0kts
30-Dec-21 21:44 35.102165 -120.622305 15 18ft 0kts
30-Dec-21 21:45 35.102165 -120.622305 15 18ft 0kts
30-Dec-21 21:46 35.102165 -120.622305 15 18ft 0kts
30-Dec-21 21:47 35.102165 -120.622305 15 18ft 0kts
30-Dec-21 21:48 35.102165 -120.622305 15 18ft 0kts
30-Dec-21 21:49 35.102165 -120.622305 15 18ft 0kts
30-Dec-21 21:50 35.102165 -120.622305 15 18ft 0kts
30-Dec-21 21:51 35.102165 -120.622305 15 18ft 0kts
30-Dec-21 21:52 35.102165 -120.622305 15 18ft 0kts
30-Dec-21 21:53 35.102613 -120.623520 311 19ft 6kts
30-Dec-21 21:54 35.103527 -120.625239 259 17ft 0kts
30-Dec-21 21:55 35.103077 -120.625159 122 18ft 0kts
30-Dec-21 21:56 35.103077 -120.625159 122 18ft 0kts
30-Dec-21 21:57 35.097419 -120.614026 120 363ft 101kts
30-Dec-21 21:58 35.078098 -120.581935 124 1822ft 130kts
30-Dec-21 21:59 35.064257 -120.541089 99 1754ft 180kts
30-Dec-21 22:00 35.055978 -120.484168 101 1821ft 159kts
30-Dec-21 22:01 35.048874 -120.428547 98 1720ft 166kts
30-Dec-21 22:01 35.043615 -120.384190 99 2283ft 143kts
30-Dec-21 22:03 35.035760 -120.333570 100 3661ft 121kts
30-Dec-21 22:04 35.029763 -120.294551 100 4740ft 116kts
30-Dec-21 22:05 35.024276 -120.255962 101 5756ft 113kts
30-Dec-21 22:06 35.018983 -120.218099 101 6577ft 121kts
30-Dec-21 22:06 35.013849 -120.181825 101 7020ft 136kts
30-Dec-21 22:07 35.007141 -120.133091 101 7258ft 156kts
30-Dec-21 22:09 34.998343 -120.070344 101 7242ft 162kts
30-Dec-21 22:10 34.990712 -120.015998 101 7245ft 163kts
30-Dec-21 22:10 34.984272 -119.970377 101 7233ft 162kts
30-Dec-21 22:11 34.976665 -119.916610 101 7238ft 160kts
30-Dec-21 22:12 34.969018 -119.862936 101 7245ft 161kts
30-Dec-21 22:14 34.966088 -119.799594 83 7241ft 146kts
30-Dec-21 22:14 34.969728 -119.763297 105 7105ft 116kts
30-Dec-21 22:15 34.958387 -119.725085 116 5551ft 121kts
30-Dec-21 22:16 34.942886 -119.691559 119 3917ft 116kts
30-Dec-21 22:17 34.941222 -119.651829 109 3802ft 114kts
30-Dec-21 22:18 34.926764 -119.636871 261 3368ft 80kts
30-Dec-21 22:19 34.931671 -119.663469 279 2639ft 74kts
30-Dec-21 22:20 34.939887 -119.685492 297 2181ft 55kts
30-Dec-21 22:21 34.942969 -119.690883 73 2150ft 0kts
30-Dec-21 22:22 34.942969 -119.690883 73 2150ft 0kts
30-Dec-21 22:23 34.942969 -119.690883 73 2150ft 0kts
30-Dec-21 22:24 34.942969 -119.690883 73 2150ft 0kts

Navigation Log

Ident Type
Flight plan parsing failed, navigation log unavailable